Lecontes Mills, Pennsylvania
Current Conditions -  °F | °C
As of 12:54 AM on Saturday 25 Oct 2014 (Local Time) from KFIG Reporting Station
Scattered Clouds Scattered Clouds  
Wind Chill: 39°   Ceiling: Unl
Heat Index: 43°   Visibility: 10mi
Dew Point: 38°   Wind: 6mph
Humidity: 82%   Direction: 230°SW
Pressure: 29.97"   Gusts: NA
Location:  41.08°N, 78.28°W
Report Text: KFIG 250454Z AUTO 23005KT 10SM SCT043 06/03 A2997 RMK AO2 SLP153 T00610033 401670056
Loading
Personal Weather Stations






























Interactive Weather Map
Tropical Storm Tracking
New forecast layout! Learn more

10-Day Weather Forecast

Advertisements
Track Severe Weather on mobile